sensor_id;sensor_type;location;lat;lon;timestamp;pressure;altitude;pressure_sealevel;temperature;humidity
62418;BME280;48456;54.242;10.280;2023-05-20T00:01:22;102760.00;;;6.58;100.00
62418;BME280;48456;54.242;10.280;2023-05-20T00:03:48;102768.66;;;6.55;100.00
62418;BME280;48456;54.242;10.280;2023-05-20T00:06:15;102772.97;;;6.53;100.00
62418;BME280;48456;54.242;10.280;2023-05-20T00:08:41;102767.56;;;6.50;100.00
62418;BME280;48456;54.242;10.280;2023-05-20T00:11:07;102766.41;;;6.43;100.00
62418;BME280;48456;54.242;10.280;2023-05-20T00:13:34;102776.75;;;6.40;100.00
62418;BME280;48456;54.242;10.280;2023-05-20T00:16:01;102768.69;;;6.35;100.00
62418;BME280;48456;54.242;10.280;2023-05-20T00:18:27;102774.63;;;6.31;100.00
62418;BME280;48456;54.242;10.280;2023-05-20T00:20:54;102769.22;;;6.28;100.00
62418;BME280;48456;54.242;10.280;2023-05-20T00:23:20;102766.47;;;6.25;100.00
62418;BME280;48456;54.242;10.280;2023-05-20T00:25:46;102763.69;;;6.22;100.00
62418;BME280;48456;54.242;10.280;2023-05-20T00:28:13;102768.94;;;6.22;100.00
62418;BME280;48456;54.242;10.280;2023-05-20T00:30:39;102768.94;;;6.22;100.00
62418;BME280;48456;54.242;10.280;2023-05-20T00:33:09;102759.16;;;6.18;100.00
62418;BME280;48456;54.242;10.280;2023-05-20T00:35:35;102766.03;;;6.16;100.00
62418;BME280;48456;54.242;10.280;2023-05-20T00:38:02;102762.38;;;6.12;100.00
62418;BME280;48456;54.242;10.280;2023-05-20T00:40:28;102765.91;;;6.13;100.00
62418;BME280;48456;54.242;10.280;2023-05-20T00:42:54;102755.19;;;6.08;100.00
62418;BME280;48456;54.242;10.280;2023-05-20T00:45:21;102768.34;;;6.08;100.00
62418;BME280;48456;54.242;10.280;2023-05-20T00:47:47;102771.72;;;6.05;100.00
62418;BME280;48456;54.242;10.280;2023-05-20T00:50:15;102769.75;;;6.01;100.00
62418;BME280;48456;54.242;10.280;2023-05-20T00:52:42;102772.97;;;5.95;100.00
62418;BME280;48456;54.242;10.280;2023-05-20T00:55:10;102767.66;;;5.94;100.00
62418;BME280;48456;54.242;10.280;2023-05-20T00:57:37;102761.22;;;5.87;100.00
62418;BME280;48456;54.242;10.280;2023-05-20T01:00:04;102767.16;;;5.83;100.00
62418;BME280;48456;54.242;10.280;2023-05-20T01:02:30;102757.41;;;5.80;100.00
62418;BME280;48456;54.242;10.280;2023-05-20T01:04:57;102768.78;;;5.81;100.00
62418;BME280;48456;54.242;10.280;2023-05-20T01:07:24;102763.59;;;5.82;100.00
62418;BME280;48456;54.242;10.280;2023-05-20T01:09:51;102757.25;;;5.77;100.00
62418;BME280;48456;54.242;10.280;2023-05-20T01:12:21;102758.00;;;5.75;100.00
62418;BME280;48456;54.242;10.280;2023-05-20T01:14:49;102759.66;;;5.72;100.00
62418;BME280;48456;54.242;10.280;2023-05-20T01:17:17;102759.59;;;5.71;100.00
62418;BME280;48456;54.242;10.280;2023-05-20T01:19:46;102756.81;;;5.68;100.00
62418;BME280;48456;54.242;10.280;2023-05-20T01:22:13;102754.19;;;5.68;100.00
62418;BME280;48456;54.242;10.280;2023-05-20T01:24:41;102761.16;;;5.67;100.00
62418;BME280;48456;54.242;10.280;2023-05-20T01:27:10;102757.69;;;5.68;100.00
62418;BME280;48456;54.242;10.280;2023-05-20T01:29:39;102755.06;;;5.68;100.00
62418;BME280;48456;54.242;10.280;2023-05-20T01:32:10;102752.53;;;5.70;100.00
62418;BME280;48456;54.242;10.280;2023-05-20T01:34:37;102744.66;;;5.70;100.00
62418;BME280;48456;54.242;10.280;2023-05-20T01:37:04;102752.44;;;5.68;100.00
62418;BME280;48456;54.242;10.280;2023-05-20T01:39:32;102750.56;;;5.66;100.00
62418;BME280;48456;54.242;10.280;2023-05-20T01:41:59;102745.22;;;5.63;100.00
62418;BME280;48456;54.242;10.280;2023-05-20T01:44:27;102748.63;;;5.62;100.00
62418;BME280;48456;54.242;10.280;2023-05-20T01:46:53;102750.50;;;5.64;100.00
62418;BME280;48456;54.242;10.280;2023-05-20T01:49:20;102751.41;;;5.65;100.00
62418;BME280;48456;54.242;10.280;2023-05-20T01:51:46;102749.63;;;5.64;100.00
62418;BME280;48456;54.242;10.280;2023-05-20T01:54:13;102745.13;;;5.61;100.00
62418;BME280;48456;54.242;10.280;2023-05-20T01:56:39;102738.97;;;5.61;100.00
62418;BME280;48456;54.242;10.280;2023-05-20T01:59:05;102736.19;;;5.57;100.00
62418;BME280;48456;54.242;10.280;2023-05-20T02:01:32;102738.81;;;5.57;100.00
62418;BME280;48456;54.242;10.280;2023-05-20T02:03:58;102729.97;;;5.55;100.00
62418;BME280;48456;54.242;10.280;2023-05-20T02:06:24;102728.31;;;5.57;100.00
62418;BME280;48456;54.242;10.280;2023-05-20T02:08:51;102729.31;;;5.59;100.00
62418;BME280;48456;54.242;10.280;2023-05-20T02:11:17;102720.59;;;5.61;100.00
62418;BME280;48456;54.242;10.280;2023-05-20T02:13:43;102729.31;;;5.59;100.00
62418;BME280;48456;54.242;10.280;2023-05-20T02:16:10;102721.41;;;5.59;100.00
62418;BME280;48456;54.242;10.280;2023-05-20T02:18:36;102723.13;;;5.59;100.00
62418;BME280;48456;54.242;10.280;2023-05-20T02:21:03;102722.44;;;5.63;100.00
62418;BME280;48456;54.242;10.280;2023-05-20T02:23:30;102723.38;;;5.64;100.00
62418;BME280;48456;54.242;10.280;2023-05-20T02:25:57;102720.06;;;5.68;100.00
62418;BME280;48456;54.242;10.280;2023-05-20T02:28:23;102725.47;;;5.71;100.00
62418;BME280;48456;54.242;10.280;2023-05-20T02:30:49;102732.66;;;5.75;100.00
62418;BME280;48456;54.242;10.280;2023-05-20T02:33:17;102727.81;;;5.84;100.00
62418;BME280;48456;54.242;10.280;2023-05-20T02:35:43;102726.56;;;5.96;100.00
62418;BME280;48456;54.242;10.280;2023-05-20T02:38:11;102733.84;;;6.02;100.00
62418;BME280;48456;54.242;10.280;2023-05-20T02:40:37;102719.97;;;6.04;100.00
62418;BME280;48456;54.242;10.280;2023-05-20T02:43:04;102732.44;;;6.08;100.00
62418;BME280;48456;54.242;10.280;2023-05-20T02:45:30;102734.25;;;6.09;100.00
62418;BME280;48456;54.242;10.280;2023-05-20T02:47:57;102734.38;;;6.13;100.00
62418;BME280;48456;54.242;10.280;2023-05-20T02:50:23;102737.22;;;6.17;100.00
62418;BME280;48456;54.242;10.280;2023-05-20T02:52:50;102732.22;;;6.23;100.00
62418;BME280;48456;54.242;10.280;2023-05-20T02:55:16;102732.66;;;6.33;100.00
62418;BME280;48456;54.242;10.280;2023-05-20T02:57:43;102732.84;;;6.37;100.00
62418;BME280;48456;54.242;10.280;2023-05-20T03:00:09;102733.91;;;6.41;100.00
62418;BME280;48456;54.242;10.280;2023-05-20T03:02:36;102730.63;;;6.47;100.00
62418;BME280;48456;54.242;10.280;2023-05-20T03:05:03;102729.22;;;6.55;100.00
62418;BME280;48456;54.242;10.280;2023-05-20T03:07:31;102726.88;;;6.61;100.00
62418;BME280;48456;54.242;10.280;2023-05-20T03:09:59;102714.81;;;6.67;100.00
62418;BME280;48456;54.242;10.280;2023-05-20T03:12:28;102724.78;;;6.74;100.00
62418;BME280;48456;54.242;10.280;2023-05-20T03:14:54;102718.88;;;6.80;100.00
62418;BME280;48456;54.242;10.280;2023-05-20T03:17:21;102721.69;;;6.84;100.00
62418;BME280;48456;54.242;10.280;2023-05-20T03:19:47;102729.72;;;6.87;100.00
62418;BME280;48456;54.242;10.280;2023-05-20T03:22:14;102723.59;;;6.88;100.00
62418;BME280;48456;54.242;10.280;2023-05-20T03:24:40;102725.47;;;6.91;100.00
62418;BME280;48456;54.242;10.280;2023-05-20T03:27:08;102730.88;;;6.94;100.00
62418;BME280;48456;54.242;10.280;2023-05-20T03:29:34;102729.16;;;6.95;100.00
62418;BME280;48456;54.242;10.280;2023-05-20T03:32:02;102722.06;;;6.94;100.00
62418;BME280;48456;54.242;10.280;2023-05-20T03:34:29;102730.94;;;6.96;100.00
62418;BME280;48456;54.242;10.280;2023-05-20T03:36:55;102725.75;;;6.97;100.00
62418;BME280;48456;54.242;10.280;2023-05-20T03:39:22;102734.66;;;7.01;100.00
62418;BME280;48456;54.242;10.280;2023-05-20T03:41:49;102734.72;;;7.02;100.00
62418;BME280;48456;54.242;10.280;2023-05-20T03:44:15;102735.72;;;7.06;100.00
62418;BME280;48456;54.242;10.280;2023-05-20T03:46:42;102736.72;;;7.08;100.00
62418;BME280;48456;54.242;10.280;2023-05-20T03:49:08;102735.94;;;7.11;100.00
62418;BME280;48456;54.242;10.280;2023-05-20T03:51:35;102741.38;;;7.15;100.00
62418;BME280;48456;54.242;10.280;2023-05-20T03:54:01;102732.75;;;7.20;100.00
62418;BME280;48456;54.242;10.280;2023-05-20T03:56:28;102736.50;;;7.25;100.00
62418;BME280;48456;54.242;10.280;2023-05-20T03:58:54;102735.81;;;7.29;100.00
62418;BME280;48456;54.242;10.280;2023-05-20T04:01:21;102728.84;;;7.31;100.00
62418;BME280;48456;54.242;10.280;2023-05-20T04:03:50;102730.63;;;7.32;100.00
62418;BME280;48456;54.242;10.280;2023-05-20T04:06:17;102728.91;;;7.33;100.00
62418;BME280;48456;54.242;10.280;2023-05-20T04:08:43;102736.88;;;7.34;100.00
62418;BME280;48456;54.242;10.280;2023-05-20T04:11:10;102722.81;;;7.34;100.00
62418;BME280;48456;54.242;10.280;2023-05-20T04:13:36;102726.41;;;7.36;100.00
62418;BME280;48456;54.242;10.280;2023-05-20T04:16:02;102726.47;;;7.37;100.00
62418;BME280;48456;54.242;10.280;2023-05-20T04:18:30;102723.84;;;7.37;100.00
62418;BME280;48456;54.242;10.280;2023-05-20T04:20:57;102726.47;;;7.37;100.00
62418;BME280;48456;54.242;10.280;2023-05-20T04:23:25;102728.25;;;7.38;100.00
62418;BME280;48456;54.242;10.280;2023-05-20T04:25:51;102722.22;;;7.41;100.00
62418;BME280;48456;54.242;10.280;2023-05-20T04:28:17;102726.72;;;7.44;100.00
62418;BME280;48456;54.242;10.280;2023-05-20T04:30:44;102724.97;;;7.44;100.00
62418;BME280;48456;54.242;10.280;2023-05-20T04:33:10;102718.94;;;7.47;100.00
62418;BME280;48456;54.242;10.280;2023-05-20T04:35:37;102718.16;;;7.49;100.00
62418;BME280;48456;54.242;10.280;2023-05-20T04:38:06;102720.78;;;7.49;100.00
62418;BME280;48456;54.242;10.280;2023-05-20T04:40:33;102723.44;;;7.49;100.00
62418;BME280;48456;54.242;10.280;2023-05-20T04:43:00;102717.25;;;7.49;100.00
62418;BME280;48456;54.242;10.280;2023-05-20T04:45:26;102722.66;;;7.52;100.00
62418;BME280;48456;54.242;10.280;2023-05-20T04:47:52;102713.13;;;7.56;100.00
62418;BME280;48456;54.242;10.280;2023-05-20T04:50:19;102710.09;;;7.67;100.00
62418;BME280;48456;54.242;10.280;2023-05-20T04:52:46;102713.78;;;7.73;100.00
62418;BME280;48456;54.242;10.280;2023-05-20T04:55:12;102713.06;;;7.77;100.00
62418;BME280;48456;54.242;10.280;2023-05-20T04:57:40;102713.19;;;7.80;100.00
62418;BME280;48456;54.242;10.280;2023-05-20T05:00:08;102707.19;;;7.84;100.00
62418;BME280;48456;54.242;10.280;2023-05-20T05:02:35;102711.97;;;7.95;100.00
62418;BME280;48456;54.242;10.280;2023-05-20T05:05:02;102714.94;;;8.04;100.00
62418;BME280;48456;54.242;10.280;2023-05-20T05:07:29;102704.91;;;8.18;100.00
62418;BME280;48456;54.242;10.280;2023-05-20T05:09:55;102712.34;;;8.30;100.00
62418;BME280;48456;54.242;10.280;2023-05-20T05:12:22;102710.28;;;8.45;100.00
62418;BME280;48456;54.242;10.280;2023-05-20T05:14:48;102707.31;;;8.61;100.00
62418;BME280;48456;54.242;10.280;2023-05-20T05:17:15;102706.13;;;8.78;100.00
62418;BME280;48456;54.242;10.280;2023-05-20T05:19:41;102710.22;;;8.96;100.00
62418;BME280;48456;54.242;10.280;2023-05-20T05:22:07;102719.56;;;9.12;100.00
62418;BME280;48456;54.242;10.280;2023-05-20T05:24:34;102709.44;;;9.26;100.00
62418;BME280;48456;54.242;10.280;2023-05-20T05:27:00;102709.81;;;9.39;100.00
62418;BME280;48456;54.242;10.280;2023-05-20T05:29:27;102706.75;;;9.52;100.00
62418;BME280;48456;54.242;10.280;2023-05-20T05:31:53;102706.22;;;9.64;100.00
62418;BME280;48456;54.242;10.280;2023-05-20T05:34:19;102705.69;;;9.76;100.00
62418;BME280;48456;54.242;10.280;2023-05-20T05:36:46;102714.94;;;9.91;100.00
62418;BME280;48456;54.242;10.280;2023-05-20T05:39:13;102709.19;;;10.07;100.00
62418;BME280;48456;54.242;10.280;2023-05-20T05:41:39;102710.56;;;10.23;100.00
62418;BME280;48456;54.242;10.280;2023-05-20T05:44:05;102708.25;;;10.36;100.00
62418;BME280;48456;54.242;10.280;2023-05-20T05:46:32;102706.22;;;10.58;100.00
62418;BME280;48456;54.242;10.280;2023-05-20T05:48:58;102707.44;;;10.72;100.00
62418;BME280;48456;54.242;10.280;2023-05-20T05:51:25;102702.81;;;10.99;100.00
62418;BME280;48456;54.242;10.280;2023-05-20T05:53:53;102700.56;;;11.14;100.00
62418;BME280;48456;54.242;10.280;2023-05-20T05:56:19;102708.06;;;11.34;100.00
62418;BME280;48456;54.242;10.280;2023-05-20T05:58:46;102701.38;;;11.52;100.00
62418;BME280;48456;54.242;10.280;2023-05-20T06:01:13;102699.09;;;11.67;100.00
62418;BME280;48456;54.242;10.280;2023-05-20T06:03:40;102703.63;;;11.73;100.00
62418;BME280;48456;54.242;10.280;2023-05-20T06:06:06;102693.34;;;11.90;100.00
62418;BME280;48456;54.242;10.280;2023-05-20T06:08:32;102700.00;;;12.11;100.00
62418;BME280;48456;54.242;10.280;2023-05-20T06:10:59;102696.66;;;12.20;100.00
62418;BME280;48456;54.242;10.280;2023-05-20T06:13:25;102697.94;;;12.42;100.00
62418;BME280;48456;54.242;10.280;2023-05-20T06:15:52;102684.84;;;12.52;100.00
62418;BME280;48456;54.242;10.280;2023-05-20T06:18:18;102689.59;;;12.71;100.00
62418;BME280;48456;54.242;10.280;2023-05-20T06:20:45;102687.25;;;12.90;100.00
62418;BME280;48456;54.242;10.280;2023-05-20T06:23:11;102691.97;;;13.08;100.00
62418;BME280;48456;54.242;10.280;2023-05-20T06:25:37;102688.53;;;13.16;100.00
62418;BME280;48456;54.242;10.280;2023-05-20T06:28:04;102688.66;;;13.23;100.00
62418;BME280;48456;54.242;10.280;2023-05-20T06:30:30;102688.66;;;13.23;100.00
62418;BME280;48456;54.242;10.280;2023-05-20T06:32:57;102686.94;;;13.27;100.00
62418;BME280;48456;54.242;10.280;2023-05-20T06:35:23;102686.19;;;13.39;100.00
62418;BME280;48456;54.242;10.280;2023-05-20T06:37:49;102689.63;;;13.30;100.00
62418;BME280;48456;54.242;10.280;2023-05-20T06:40:16;102686.38;;;13.50;100.00
62418;BME280;48456;54.242;10.280;2023-05-20T06:42:42;102685.50;;;13.49;100.00
62418;BME280;48456;54.242;10.280;2023-05-20T06:45:09;102683.84;;;13.58;100.00
62418;BME280;48456;54.242;10.280;2023-05-20T06:47:36;102686.56;;;13.64;100.00
62418;BME280;48456;54.242;10.280;2023-05-20T06:50:03;102685.03;;;13.83;100.00
62418;BME280;48456;54.242;10.280;2023-05-20T06:52:29;102676.22;;;13.87;100.00
62418;BME280;48456;54.242;10.280;2023-05-20T06:54:56;102677.25;;;13.99;100.00
62418;BME280;48456;54.242;10.280;2023-05-20T06:57:22;102676.56;;;14.17;100.00
62418;BME280;48456;54.242;10.280;2023-05-20T06:59:49;102669.63;;;14.33;100.00
62418;BME280;48456;54.242;10.280;2023-05-20T07:02:15;102674.16;;;14.43;100.00
62418;BME280;48456;54.242;10.280;2023-05-20T07:04:41;102673.13;;;14.27;100.00
62418;BME280;48456;54.242;10.280;2023-05-20T07:07:08;102670.38;;;14.20;100.00
62418;BME280;48456;54.242;10.280;2023-05-20T07:09:34;102676.81;;;14.43;100.00
62418;BME280;48456;54.242;10.280;2023-05-20T07:12:01;102672.53;;;14.58;100.00
62418;BME280;48456;54.242;10.280;2023-05-20T07:14:27;102673.50;;;14.68;100.00
62418;BME280;48456;54.242;10.280;2023-05-20T07:16:53;102675.38;;;14.78;100.00
62418;BME280;48456;54.242;10.280;2023-05-20T07:19:20;102677.06;;;14.70;100.00
62418;BME280;48456;54.242;10.280;2023-05-20T07:21:46;102666.38;;;14.67;100.00
62418;BME280;48456;54.242;10.280;2023-05-20T07:24:15;102663.84;;;14.79;100.00
62418;BME280;48456;54.242;10.280;2023-05-20T07:26:41;102660.09;;;14.59;100.00
62418;BME280;48456;54.242;10.280;2023-05-20T07:29:08;102661.88;;;14.58;100.00
62418;BME280;48456;54.242;10.280;2023-05-20T07:31:35;102665.50;;;14.69;100.00
62418;BME280;48456;54.242;10.280;2023-05-20T07:34:01;102666.66;;;14.97;100.00
62418;BME280;48456;54.242;10.280;2023-05-20T07:36:28;102665.00;;;15.14;100.00
62418;BME280;48456;54.242;10.280;2023-05-20T07:38:54;102660.53;;;15.10;100.00
62418;BME280;48456;54.242;10.280;2023-05-20T07:41:29;102655.88;;;14.81;100.00
62418;BME280;48456;54.242;10.280;2023-05-20T07:43:56;102665.56;;;14.76;100.00
62418;BME280;48456;54.242;10.280;2023-05-20T07:46:22;102667.25;;;14.64;100.00
62418;BME280;48456;54.242;10.280;2023-05-20T07:48:48;102668.81;;;14.40;100.00
62418;BME280;48456;54.242;10.280;2023-05-20T07:51:15;102667.00;;;14.36;100.00
62418;BME280;48456;54.242;10.280;2023-05-20T07:53:41;102665.28;;;14.41;100.00
62418;BME280;48456;54.242;10.280;2023-05-20T07:56:08;102673.44;;;14.62;100.00
62418;BME280;48456;54.242;10.280;2023-05-20T07:58:34;102662.00;;;14.72;100.00
62418;BME280;48456;54.242;10.280;2023-05-20T08:01:01;102661.44;;;15.11;100.00
62418;BME280;48456;54.242;10.280;2023-05-20T08:03:27;102666.94;;;15.42;100.00
62418;BME280;48456;54.242;10.280;2023-05-20T08:05:54;102664.28;;;15.46;100.00
62418;BME280;48456;54.242;10.280;2023-05-20T08:08:20;102669.66;;;15.56;100.00
62418;BME280;48456;54.242;10.280;2023-05-20T08:10:46;102668.88;;;15.74;100.00
62418;BME280;48456;54.242;10.280;2023-05-20T08:13:13;102662.66;;;15.83;100.00
62418;BME280;48456;54.242;10.280;2023-05-20T08:15:39;102667.91;;;15.63;100.00
62418;BME280;48456;54.242;10.280;2023-05-20T08:18:06;102666.06;;;15.52;100.00
62418;BME280;48456;54.242;10.280;2023-05-20T08:20:32;102673.19;;;15.55;100.00
62418;BME280;48456;54.242;10.280;2023-05-20T08:22:59;102660.97;;;16.02;100.00
62418;BME280;48456;54.242;10.280;2023-05-20T08:25:25;102665.44;;;16.09;100.00
62418;BME280;48456;54.242;10.280;2023-05-20T08:27:51;102650.31;;;16.08;100.00
62418;BME280;48456;54.242;10.280;2023-05-20T08:30:18;102660.09;;;16.14;100.00
62418;BME280;48456;54.242;10.280;2023-05-20T08:32:44;102653.88;;;16.21;100.00
62418;BME280;48456;54.242;10.280;2023-05-20T08:35:11;102642.34;;;16.71;100.00
62418;BME280;48456;54.242;10.280;2023-05-20T08:37:38;102650.34;;;17.00;100.00
62418;BME280;48456;54.242;10.280;2023-05-20T08:40:04;102643.19;;;16.88;100.00
62418;BME280;48456;54.242;10.280;2023-05-20T08:42:31;102647.66;;;16.94;100.00
62418;BME280;48456;54.242;10.280;2023-05-20T08:44:58;102645.81;;;17.38;100.00
62418;BME280;48456;54.242;10.280;2023-05-20T08:47:25;102644.88;;;17.44;100.00
62418;BME280;48456;54.242;10.280;2023-05-20T08:49:51;102646.78;;;17.16;100.00
62418;BME280;48456;54.242;10.280;2023-05-20T08:52:19;102641.44;;;16.92;100.00
62418;BME280;48456;54.242;10.280;2023-05-20T08:54:47;102633.44;;;16.81;100.00
62418;BME280;48456;54.242;10.280;2023-05-20T08:57:14;102645.03;;;16.65;100.00
62418;BME280;48456;54.242;10.280;2023-05-20T08:59:41;102633.44;;;16.56;100.00
62418;BME280;48456;54.242;10.280;2023-05-20T09:02:08;102635.22;;;16.84;100.00
62418;BME280;48456;54.242;10.280;2023-05-20T09:04:36;102629.75;;;17.42;100.00
62418;BME280;48456;54.242;10.280;2023-05-20T09:07:03;102631.56;;;17.32;100.00
62418;BME280;48456;54.242;10.280;2023-05-20T09:09:31;102624.50;;;17.09;100.00
62418;BME280;48456;54.242;10.280;2023-05-20T09:11:59;102627.16;;;17.01;100.00
62418;BME280;48456;54.242;10.280;2023-05-20T09:14:26;102628.94;;;17.10;100.00
62418;BME280;48456;54.242;10.280;2023-05-20T09:16:53;102629.00;;;16.79;100.00
62418;BME280;48456;54.242;10.280;2023-05-20T09:19:22;102634.31;;;16.49;100.00
62418;BME280;48456;54.242;10.280;2023-05-20T09:21:51;102628.09;;;16.20;100.00
62418;BME280;48456;54.242;10.280;2023-05-20T09:24:19;102620.94;;;16.22;100.00
62418;BME280;48456;54.242;10.280;2023-05-20T09:26:46;102620.06;;;16.80;100.00
62418;BME280;48456;54.242;10.280;2023-05-20T09:29:13;102604.88;;;16.91;100.00
62418;BME280;48456;54.242;10.280;2023-05-20T09:31:39;102612.03;;;17.06;100.00
62418;BME280;48456;54.242;10.280;2023-05-20T09:34:06;102618.19;;;17.27;100.00
62418;BME280;48456;54.242;10.280;2023-05-20T09:36:33;102620.91;;;17.04;100.00
62418;BME280;48456;54.242;10.280;2023-05-20T09:39:00;102613.78;;;17.01;100.00
62418;BME280;48456;54.242;10.280;2023-05-20T09:41:32;102617.38;;;16.94;100.00
62418;BME280;48456;54.242;10.280;2023-05-20T09:43:59;102621.84;;;16.84;100.00
62418;BME280;48456;54.242;10.280;2023-05-20T09:46:25;102606.72;;;16.78;100.00
62418;BME280;48456;54.242;10.280;2023-05-20T09:48:53;102604.03;;;16.76;100.00
62418;BME280;48456;54.242;10.280;2023-05-20T09:51:20;102606.72;;;16.83;100.00
62418;BME280;48456;54.242;10.280;2023-05-20T09:53:47;102603.09;;;16.87;100.00
62418;BME280;48456;54.242;10.280;2023-05-20T09:56:14;102600.44;;;16.88;100.00
62418;BME280;48456;54.242;10.280;2023-05-20T09:58:40;102602.25;;;16.88;100.00
62418;BME280;48456;54.242;10.280;2023-05-20T10:01:07;102599.53;;;17.02;100.00
62418;BME280;48456;54.242;10.280;2023-05-20T10:03:34;102615.59;;;17.11;100.00
62418;BME280;48456;54.242;10.280;2023-05-20T10:06:10;102593.25;;;17.22;100.00
62418;BME280;48456;54.242;10.280;2023-05-20T10:11:30;102598.59;;;17.30;100.00
62418;BME280;48456;54.242;10.280;2023-05-20T10:21:40;102574.75;;;18.36;100.00
62418;BME280;48456;54.242;10.280;2023-05-20T10:24:09;102583.81;;;18.18;100.00
62418;BME280;48456;54.242;10.280;2023-05-20T10:26:36;102589.00;;;18.41;100.00
62418;BME280;48456;54.242;10.280;2023-05-20T10:31:49;102573.91;;;18.29;100.00
62418;BME280;48456;54.242;10.280;2023-05-20T10:34:16;102567.97;;;17.85;100.00
62418;BME280;48456;54.242;10.280;2023-05-20T10:36:56;102572.34;;;17.97;100.00
62418;BME280;48456;54.242;10.280;2023-05-20T10:39:29;102562.69;;;17.71;100.00
62418;BME280;48456;54.242;10.280;2023-05-20T10:42:07;102569.88;;;17.66;100.00
62418;BME280;48456;54.242;10.280;2023-05-20T10:44:43;102568.81;;;17.90;100.00
62418;BME280;48456;54.242;10.280;2023-05-20T10:47:10;102566.91;;;18.10;100.00
62418;BME280;48456;54.242;10.280;2023-05-20T10:49:40;102564.97;;;18.32;100.00
62418;BME280;48456;54.242;10.280;2023-05-20T10:52:09;102564.41;;;18.88;100.00
62418;BME280;48456;54.242;10.280;2023-05-20T10:54:36;102559.28;;;18.68;100.00
62418;BME280;48456;54.242;10.280;2023-05-20T10:57:07;102558.16;;;19.63;100.00
62418;BME280;48456;54.242;10.280;2023-05-20T10:59:36;102550.16;;;20.18;100.00
62418;BME280;48456;54.242;10.280;2023-05-20T11:02:03;102561.03;;;20.62;100.00
62418;BME280;48456;54.242;10.280;2023-05-20T11:04:29;102553.94;;;20.58;100.00
62418;BME280;48456;54.242;10.280;2023-05-20T11:06:57;102550.66;;;19.85;100.00
62418;BME280;48456;54.242;10.280;2023-05-20T11:09:24;102546.00;;;19.34;100.00
62418;BME280;48456;54.242;10.280;2023-05-20T11:11:53;102538.81;;;19.36;100.00
62418;BME280;48456;54.242;10.280;2023-05-20T11:14:20;102532.28;;;19.57;100.00
62418;BME280;48456;54.242;10.280;2023-05-20T11:16:50;102531.00;;;20.38;100.00
62418;BME280;48456;54.242;10.280;2023-05-20T11:19:17;102535.94;;;20.11;100.00
62418;BME280;48456;54.242;10.280;2023-05-20T11:21:44;102526.28;;;19.99;100.00
62418;BME280;48456;54.242;10.280;2023-05-20T11:24:11;102530.75;;;20.01;100.00
62418;BME280;48456;54.242;10.280;2023-05-20T11:26:38;102525.31;;;20.56;100.00
62418;BME280;48456;54.242;10.280;2023-05-20T11:29:05;102530.84;;;19.91;100.00
62418;BME280;48456;54.242;10.280;2023-05-20T11:31:32;102527.25;;;19.32;100.00
62418;BME280;48456;54.242;10.280;2023-05-20T11:33:58;102519.31;;;20.39;100.00
62418;BME280;48456;54.242;10.280;2023-05-20T11:36:27;102513.69;;;20.54;100.00
62418;BME280;48456;54.242;10.280;2023-05-20T11:38:57;102534.97;;;19.57;100.00
62418;BME280;48456;54.242;10.280;2023-05-20T11:41:27;102533.03;;;18.96;100.00
62418;BME280;48456;54.242;10.280;2023-05-20T11:43:55;102532.34;;;18.79;100.00
62418;BME280;48456;54.242;10.280;2023-05-20T11:46:21;102528.16;;;18.54;100.00
62418;BME280;48456;54.242;10.280;2023-05-20T11:48:54;102521.97;;;18.48;100.00
62418;BME280;48456;54.242;10.280;2023-05-20T11:51:27;102516.00;;;18.19;100.00
62418;BME280;48456;54.242;10.280;2023-05-20T11:54:00;102512.56;;;17.97;100.00
62418;BME280;48456;54.242;10.280;2023-05-20T11:56:28;102514.53;;;17.71;100.00
62418;BME280;48456;54.242;10.280;2023-05-20T11:58:56;102503.00;;;17.61;100.00
62418;BME280;48456;54.242;10.280;2023-05-20T12:01:22;102509.25;;;18.67;100.00
62418;BME280;48456;54.242;10.280;2023-05-20T12:03:49;102493.47;;;19.17;100.00
62418;BME280;48456;54.242;10.280;2023-05-20T12:06:16;102495.38;;;19.07;100.00
62418;BME280;48456;54.242;10.280;2023-05-20T12:08:43;102493.00;;;19.50;100.00
62418;BME280;48456;54.242;10.280;2023-05-20T12:11:09;102477.63;;;18.95;100.00
62418;BME280;48456;54.242;10.280;2023-05-20T12:13:36;102500.56;;;18.43;100.00
62418;BME280;48456;54.242;10.280;2023-05-20T12:16:02;102501.81;;;18.00;100.00
62418;BME280;48456;54.242;10.280;2023-05-20T12:18:31;102506.47;;;17.76;100.00
62418;BME280;48456;54.242;10.280;2023-05-20T12:20:58;102497.75;;;17.47;100.00
62418;BME280;48456;54.242;10.280;2023-05-20T12:23:25;102503.91;;;17.59;100.00
62418;BME280;48456;54.242;10.280;2023-05-20T12:25:51;102500.28;;;17.69;100.00
62418;BME280;48456;54.242;10.280;2023-05-20T12:28:18;102503.88;;;17.66;100.00
62418;BME280;48456;54.242;10.280;2023-05-20T12:30:44;102501.22;;;17.57;100.00
62418;BME280;48456;54.242;10.280;2023-05-20T12:33:11;102497.78;;;17.41;100.00
62418;BME280;48456;54.242;10.280;2023-05-20T12:35:41;102498.75;;;17.23;100.00
62418;BME280;48456;54.242;10.280;2023-05-20T12:38:08;102498.81;;;17.13;100.00
62418;BME280;48456;54.242;10.280;2023-05-20T12:40:34;102497.97;;;16.97;100.00
62418;BME280;48456;54.242;10.280;2023-05-20T12:43:02;102501.53;;;16.95;100.00
62418;BME280;48456;54.242;10.280;2023-05-20T12:45:29;102497.13;;;16.83;100.00
62418;BME280;48456;54.242;10.280;2023-05-20T12:47:55;102495.25;;;17.13;100.00